Date,TemperatureHighF,TemperatureAvgF,TemperatureLowF,DewpointHighF,DewpointAvgF,DewpointLowF,HumidityHigh,HumidityAvg,HumidityLow,PressureMaxIn,PressureMinIn,WindSpeedMaxMPH,WindSpeedAvgMPH,GustSpeedMaxMPH,PrecipitationSumIn
2013-10-1,81.5,71.4,64.5,71.7,67.3,63.3,96,88,70,30.02,29.93,9,1,9,0.00
2013-10-2,83.4,73.6,66.3,73.3,69.2,65.3,99,87,67,30.05,29.94,10,0,10,0.05
2013-10-3,86.7,77.1,69.2,73.4,69.5,66.0,94,78,58,29.96,29.85,11,1,12,0.00
2013-10-4,87.5,78.0,70.0,72.4,70.0,68.2,95,78,56,29.96,29.88,13,1,13,0.00
2013-10-5,77.9,70.0,55.5,71.7,66.2,52.3,96,88,69,29.94,29.83,14,1,14,0.16
2013-10-6,57.9,53.3,47.5,52.8,46.0,40.8,97,78,56,29.93,29.85,21,3,21,0.00
2013-10-7,70.6,56.9,49.7,53.8,48.9,46.9,94,77,44,30.15,29.92,15,2,15,0.00
2013-10-8,74.9,59.6,45.8,60.3,49.9,45.0,99,74,42,30.22,30.13,10,0,13,0.00
2013-10-9,74.9,60.1,46.6,56.8,51.4,45.3,97,76,48,30.20,30.09,7,0,7,0.00
2013-10-10,79.3,65.3,53.5,64.4,58.1,52.6,98,80,51,30.17,30.00,8,0,8,0.00
2013-10-11,80.7,67.7,57.0,63.8,58.6,54.7,97,75,42,30.05,29.89,14,1,15,0.00
2013-10-12,76.3,66.1,52.0,65.0,57.8,46.8,91,76,46,30.21,29.93,11,1,11,0.00
2013-10-13,73.3,58.0,43.4,49.3,42.8,37.0,97,62,28,30.40,30.21,8,0,8,0.00
2013-10-14,67.0,57.5,47.5,55.1,45.3,38.3,77,64,49,30.36,30.06,11,1,13,0.00
2013-10-15,68.3,62.9,55.7,65.4,59.3,49.6,97,88,76,30.07,29.89,12,1,12,0.54
2013-10-16,58.2,50.9,43.5,49.8,44.3,41.9,97,79,61,30.07,29.97,14,2,15,0.00
2013-10-17,65.0,52.5,44.8,50.1,45.4,40.1,97,80,41,30.03,29.93,16,1,17,0.01
2013-10-18,60.2,51.7,44.7,47.1,43.0,38.5,92,73,46,30.09,29.97,13,2,16,0.04
2013-10-19,57.7,47.1,40.8,42.9,40.1,36.6,96,79,46,30.06,29.97,19,2,19,0.24
2013-10-20,72.6,57.4,44.8,46.8,42.8,39.1,81,61,34,29.99,29.86,14,1,16,0.00
2013-10-21,56.7,49.2,35.6,46.6,40.8,33.6,94,74,47,30.09,29.93,13,1,13,0.00
2013-10-22,61.2,45.1,34.2,48.4,39.9,33.1,97,83,57,30.09,29.81,17,2,21,0.23
2013-10-23,49.5,42.3,36.2,38.1,35.2,29.9,93,78,50,30.17,30.03,16,2,16,0.04
2013-10-24,47.2,40.6,28.2,38.4,31.8,25.9,95,73,49,30.45,30.16,19,2,20,0.01
2013-10-25,55.9,40.3,26.8,34.6,29.6,25.6,97,69,36,30.56,30.25,11,0,11,0.00
2013-10-26,63.7,50.0,37.8,45.0,35.9,29.4,79,59,42,30.25,30.03,18,2,18,0.00
2013-10-27,61.4,43.5,29.5,37.6,32.5,28.2,97,70,31,30.17,30.05,7,0,9,0.00
2013-10-28,67.8,50.3,33.7,48.2,41.3,32.4,97,74,42,30.27,30.08,7,0,7,0.00
2013-10-29,57.6,53.3,48.5,56.8,48.4,39.1,98,84,65,30.27,30.08,10,0,12,0.20
2013-10-30,71.8,64.5,57.4,68.4,62.3,56.8,99,93,80,30.08,29.83,12,1,12,0.03
2013-10-31,66.9,60.9,47.9,65.1,59.4,46.2,98,95,88,29.83,29.39,21,2,21,0.77